Time;durP1;ratioP1;P1;durP2;ratioP2;P2;SDS_P1;SDS_P2;PMS_P1;PMS_P2;Temp;Humidity;BMP_temperature;BMP_pressure;BME280_temperature;BME280_humidity;BME280_pressure;Samples;Min_cycle;Max_cycle;Signal;HPM_P1;HPM_P2
2022/06/30 00:00:34;;;;;;;16.97;10.57;;;;;;;20.38;79.13;98792.88;5053312;28;20602;-83
2022/06/30 00:02:59;;;;;;;16.13;10.70;;;;;;;19.22;78.68;98586.97;5052414;28;20169;-84
2022/06/30 00:05:25;;;;;;;13.33;10.27;;;;;;;20.99;78.35;98880.81;5054085;28;20162;-84
2022/06/30 00:07:50;;;;;;;16.60;10.63;;;;;;;19.93;77.68;98684.28;5053093;28;20227;-86
2022/06/30 00:10:16;;;;;;;14.23;10.53;;;;;;;20.79;78.66;98826.94;5052424;28;20168;-84
2022/06/30 00:12:42;;;;;;;13.13;10.23;;;;;;;22.06;79.61;99077.63;5052209;28;20547;-84
2022/06/30 00:15:08;;;;;;;13.47;9.60;;;;;;;22.12;79.50;99072.44;5051769;28;20197;-84
2022/06/30 00:17:34;;;;;;;12.53;10.00;;;;;;;20.78;79.42;98860.38;5050753;28;20169;-85
2022/06/30 00:20:00;;;;;;;13.20;10.33;;;;;;;21.88;78.96;99006.47;5051536;28;20162;-84
2022/06/30 00:22:25;;;;;;;13.33;10.10;;;;;;;20.53;79.25;98787.63;5051678;28;20588;-84
2022/06/30 00:24:52;;;;;;;15.40;10.40;;;;;;;21.66;79.30;98973.97;5051636;28;20172;-84
2022/06/30 00:27:17;;;;;;;14.57;10.30;;;;;;;21.65;79.73;98974.81;5051799;28;20169;-84
2022/06/30 00:29:43;;;;;;;12.87;10.10;;;;;;;20.63;79.40;98801.31;5051724;28;20227;-84
2022/06/30 00:32:08;;;;;;;14.23;10.50;;;;;;;21.83;80.13;99017.66;5051668;28;20224;-85
2022/06/30 00:34:34;;;;;;;16.23;10.53;;;;;;;19.70;80.08;98656.97;5051693;28;20165;-83
2022/06/30 00:37:00;;;;;;;13.57;10.10;;;;;;;21.74;80.54;99003.09;5051547;28;20635;-84
2022/06/30 00:39:26;;;;;;;11.77;10.10;;;;;;;21.71;81.30;99014.28;5051930;28;20244;-85
2022/06/30 00:41:51;;;;;;;14.43;10.60;;;;;;;21.38;83.42;99011.94;5051756;28;20278;-84
2022/06/30 00:44:17;;;;;;;15.50;10.30;;;;;;;21.35;83.42;98998.19;5051623;28;20172;-83
2022/06/30 00:46:42;;;;;;;16.00;9.90;;;;;;;21.27;84.65;99005.13;5051750;28;20240;-83
2022/06/30 00:49:07;;;;;;;16.17;10.30;;;;;;;18.43;84.43;98535.00;5051452;28;20165;-84
2022/06/30 00:51:33;;;;;;;13.13;10.30;;;;;;;20.76;85.01;98947.88;5051782;28;20165;-84
2022/06/30 00:54:02;;;;;;;15.57;10.07;;;;;;;21.55;85.08;99068.50;5033788;28;20175;-83
2022/06/30 00:56:29;;;;;;;14.87;10.00;;;;;;;18.34;86.86;98582.84;5051469;28;20211;-84
2022/06/30 00:59:00;;;;;;;11.73;10.40;;;;;;;18.01;87.47;98558.09;5053574;28;20177;-85
2022/06/30 01:01:27;;;;;;;14.60;10.30;;;;;;;18.99;88.01;98754.66;5034605;28;20552;-84
2022/06/30 01:03:55;;;;;;;15.57;10.33;;;;;;;20.74;89.03;99065.34;5053066;28;20165;-84
2022/06/30 01:06:22;;;;;;;14.63;10.17;;;;;;;18.39;88.85;98669.13;5052102;28;20939;-84
2022/06/30 01:08:49;;;;;;;13.90;10.13;;;;;;;19.21;88.98;98810.25;5052052;28;20691;-85
2022/06/30 01:14:00;;;;;;;16.93;11.17;;;;;;;19.69;87.30;98860.75;5051595;28;20192;-83
2022/06/30 01:16:26;;;;;;;15.40;10.90;;;;;;;20.13;87.08;98930.91;5055169;28;20213;-85
2022/06/30 01:18:51;;;;;;;14.90;10.10;;;;;;;18.99;87.80;98763.22;5055365;28;20157;-84
2022/06/30 01:21:17;;;;;;;15.40;10.50;;;;;;;20.88;88.06;99058.44;5055268;28;20305;-84
2022/06/30 01:23:43;;;;;;;13.47;10.00;;;;;;;20.78;88.70;99084.22;5054902;28;20169;-82
2022/06/30 01:26:09;;;;;;;13.27;10.00;;;;;;;20.43;88.88;98997.72;5055444;28;20172;-83
2022/06/30 01:28:34;;;;;;;11.47;9.80;;;;;;;17.44;89.25;98530.66;5055389;28;20565;-83
2022/06/30 01:30:59;;;;;;;12.43;9.63;;;;;;;19.80;87.81;98865.00;5055266;28;20174;-82
2022/06/30 01:33:25;;;;;;;10.83;9.67;;;;;;;20.57;87.77;98977.09;5036791;28;20258;-81
2022/06/30 01:35:51;;;;;;;12.23;9.60;;;;;;;18.84;87.54;98697.34;5054901;28;20186;-83
2022/06/30 01:38:19;;;;;;;12.00;9.43;;;;;;;19.21;87.64;98774.31;5054491;28;20233;-84
2022/06/30 01:40:45;;;;;;;11.97;10.17;;;;;;;20.85;88.58;99060.19;5054484;28;20234;-83
2022/06/30 01:43:11;;;;;;;11.43;9.63;;;;;;;20.38;87.35;98949.72;5055221;28;20201;-82
2022/06/30 01:45:37;;;;;;;13.47;9.57;;;;;;;18.73;86.61;98659.78;5054981;28;20157;-84
2022/06/30 01:48:03;;;;;;;12.47;9.50;;;;;;;21.06;85.98;99042.09;5041046;28;20176;-84
2022/06/30 01:50:30;;;;;;;12.03;9.63;;;;;;;20.53;85.65;98973.66;5064598;28;20170;-84
2022/06/30 01:52:57;;;;;;;10.77;9.30;;;;;;;20.84;85.48;99010.44;5055437;28;20644;-84
2022/06/30 01:55:23;;;;;;;16.77;9.67;;;;;;;19.79;85.95;98854.72;5054889;28;20195;-84
2022/06/30 01:57:49;;;;;;;10.47;8.93;;;;;;;20.91;86.88;99067.88;5055091;28;20162;-83
2022/06/30 02:00:17;;;;;;;15.93;9.77;;;;;;;18.81;88.03;98737.56;5055482;28;20157;-83
2022/06/30 02:02:43;;;;;;;13.77;9.77;;;;;;;20.47;87.95;99008.81;5054275;28;20176;-83
2022/06/30 02:05:09;;;;;;;17.77;9.93;;;;;;;20.64;88.70;99065.38;5054820;28;20610;-83
2022/06/30 02:07:36;;;;;;;13.47;10.20;;;;;;;20.47;89.92;99060.25;5054320;28;20189;-82
2022/06/30 02:10:09;;;;;;;12.50;9.90;;;;;;;17.28;89.21;98516.13;5054978;28;20188;-81
2022/06/30 02:12:47;;;;;;;12.97;9.67;;;;;;;19.80;90.67;99000.28;5054600;28;20252;-81
2022/06/30 02:15:15;;;;;;;14.57;10.67;;;;;;;18.18;90.57;98697.31;5054184;28;20189;-81
2022/06/30 02:17:41;;;;;;;11.37;9.73;;;;;;;19.40;88.76;98851.34;5054065;28;20678;-82
2022/06/30 02:20:08;;;;;;;13.27;9.63;;;;;;;18.31;88.52;98680.22;5053814;28;20290;-82
2022/06/30 02:22:35;;;;;;;13.40;10.33;;;;;;;20.25;88.05;98997.72;5053688;28;20191;-81
2022/06/30 02:25:00;;;;;;;12.80;10.03;;;;;;;18.78;88.80;98747.81;5053565;28;20638;-81
2022/06/30 02:27:26;;;;;;;14.50;10.23;;;;;;;20.28;90.53;99041.44;5052986;28;20200;-81
2022/06/30 02:29:51;;;;;;;17.10;10.10;;;;;;;20.20;90.76;99050.81;5053508;28;20626;-82
2022/06/30 02:32:18;;;;;;;14.47;10.20;;;;;;;20.27;90.06;99049.97;5054687;28;20503;-82
2022/06/30 02:34:44;;;;;;;12.03;9.73;;;;;;;20.27;90.06;99049.97;5060233;28;20161;-83
2022/06/30 02:37:10;;;;;;;12.37;9.50;;;;;;;20.20;90.32;99048.25;5053887;28;20192;-82
2022/06/30 02:39:36;;;;;;;11.97;9.60;;;;;;;20.39;89.74;99062.84;5055649;28;20161;-81
2022/06/30 02:42:01;;;;;;;12.67;10.50;;;;;;;19.47;89.46;98906.13;5055616;28;20169;-81
2022/06/30 02:44:26;;;;;;;14.17;10.23;;;;;;;19.72;89.19;98958.34;5055601;28;20170;-83
2022/06/30 02:46:54;;;;;;;16.07;10.53;;;;;;;19.41;88.46;98863.34;5054650;28;20160;-83
2022/06/30 02:49:20;;;;;;;12.07;10.10;;;;;;;20.70;87.42;99034.50;5053390;28;20173;-84
2022/06/30 02:51:46;;;;;;;13.37;10.63;;;;;;;20.97;86.54;99066.16;5053968;28;20199;-83
2022/06/30 02:54:11;;;;;;;12.90;10.07;;;;;;;21.00;85.75;99063.56;5053565;28;20615;-84
2022/06/30 02:56:37;;;;;;;12.47;10.60;;;;;;;19.26;85.73;98785.41;5053524;28;20189;-82
2022/06/30 02:59:02;;;;;;;15.37;10.17;;;;;;;19.23;85.31;98767.44;5053059;28;20231;-81
2022/06/30 03:01:28;;;;;;;13.70;10.00;;;;;;;18.57;85.03;98673.47;5053538;28;20654;-82
2022/06/30 03:03:53;;;;;;;13.93;10.33;;;;;;;20.38;84.97;98970.28;5053151;28;20173;-81
2022/06/30 03:06:19;;;;;;;13.37;10.00;;;;;;;20.29;85.16;98963.44;5052982;28;20207;-82
2022/06/30 03:08:44;;;;;;;13.90;11.20;;;;;;;18.80;83.27;98671.72;5053125;28;20175;-83
2022/06/30 03:11:16;;;;;;;14.50;11.60;;;;;;;20.24;82.81;98898.34;5053148;28;20541;-85
2022/06/30 03:13:43;;;;;;;15.57;10.30;;;;;;;20.69;83.04;98984.75;5052933;28;20163;-85
2022/06/30 03:16:08;;;;;;;12.70;10.20;;;;;;;20.35;81.79;98877.72;5034827;28;20251;-83
2022/06/30 03:18:34;;;;;;;14.17;10.43;;;;;;;19.47;81.79;98749.50;5053064;28;20153;-82
2022/06/30 03:20:59;;;;;;;13.53;10.53;;;;;;;20.78;81.07;98947.84;5052626;28;20555;-82
2022/06/30 03:23:26;;;;;;;15.53;10.27;;;;;;;21.58;81.02;99074.50;5052717;28;20169;-83
2022/06/30 03:25:52;;;;;;;14.57;10.40;;;;;;;20.69;81.34;98927.28;5052729;28;20679;-82
2022/06/30 03:28:17;;;;;;;13.43;10.73;;;;;;;21.54;82.11;99088.25;5052393;28;20268;-82
2022/06/30 03:30:45;;;;;;;15.90;10.40;;;;;;;19.93;82.04;98824.72;5052380;28;20158;-83
2022/06/30 03:33:11;;;;;;;14.80;10.33;;;;;;;21.64;81.98;99094.22;5052609;28;20221;-81
2022/06/30 03:35:36;;;;;;;14.13;10.63;;;;;;;21.07;80.30;98982.03;5052467;28;20196;-83
2022/06/30 03:38:04;;;;;;;14.63;10.73;;;;;;;21.26;79.46;98999.09;5052274;28;20227;-83
2022/06/30 03:40:29;;;;;;;11.63;10.13;;;;;;;21.26;79.09;98980.25;5065998;28;20236;-84
2022/06/30 03:42:55;;;;;;;13.50;10.50;;;;;;;20.30;77.72;98804.91;5072797;28;20193;-82
2022/06/30 03:45:20;;;;;;;11.43;9.90;;;;;;;21.02;76.99;98932.28;5052119;28;20687;-84
2022/06/30 03:47:45;;;;;;;13.70;10.63;;;;;;;19.65;76.98;98684.38;5052686;28;20610;-85
2022/06/30 03:50:11;;;;;;;15.20;10.43;;;;;;;20.44;76.41;98823.69;5052482;28;20212;-86
2022/06/30 03:52:37;;;;;;;14.90;10.50;;;;;;;22.25;76.45;99110.16;5052941;28;20158;-86
2022/06/30 03:55:03;;;;;;;17.37;10.67;;;;;;;21.78;75.65;99010.78;5052557;28;20158;-86
2022/06/30 03:57:31;;;;;;;13.67;10.63;;;;;;;20.79;75.67;98851.81;5053533;28;20165;-86
2022/06/30 03:59:57;;;;;;;16.67;10.20;;;;;;;21.75;76.44;99026.28;5052516;28;20613;-83
2022/06/30 04:02:22;;;;;;;15.17;10.33;;;;;;;21.06;75.78;98896.25;5052958;28;20221;-85
2022/06/30 04:04:48;;;;;;;19.23;11.40;;;;;;;21.61;76.39;98955.97;5035972;28;20215;-84
2022/06/30 04:07:13;;;;;;;17.97;11.57;;;;;;;21.48;75.74;98913.13;5052880;28;20244;-87
2022/06/30 04:09:39;;;;;;;16.33;11.50;;;;;;;22.10;74.86;99001.97;5045571;28;20165;-85
2022/06/30 04:12:05;;;;;;;17.97;11.40;;;;;;;21.15;74.68;98824.09;5057671;28;20626;-85
2022/06/30 04:14:30;;;;;;;17.43;11.20;;;;;;;19.77;72.30;98586.75;5053103;28;20169;-84
2022/06/30 04:16:55;;;;;;;19.20;11.20;;;;;;;21.03;72.58;98806.16;5034928;28;20193;-83
2022/06/30 04:19:21;;;;;;;18.57;11.67;;;;;;;21.27;72.07;98799.13;5051447;28;20248;-86
2022/06/30 04:21:46;;;;;;;20.03;11.80;;;;;;;21.59;71.18;98843.50;5052850;28;20170;-84
2022/06/30 04:24:12;;;;;;;13.67;10.83;;;;;;;20.33;70.73;98651.47;5054332;28;20284;-84
2022/06/30 04:26:37;;;;;;;14.17;10.80;;;;;;;22.32;69.52;98954.50;5019104;28;20323;-82
2022/06/30 04:29:02;;;;;;;19.10;10.40;;;;;;;22.99;68.45;99050.09;5032557;28;20185;-87
2022/06/30 04:34:12;;;;;;;14.90;10.60;;;;;;;22.86;68.17;99031.31;5051163;28;20192;-85
2022/06/30 04:36:37;;;;;;;14.70;10.30;;;;;;;21.96;66.67;98838.84;5046250;28;20213;-86
2022/06/30 04:39:03;;;;;;;13.03;9.90;;;;;;;23.23;67.27;99095.47;5031536;28;20566;-84
2022/06/30 04:41:28;;;;;;;12.70;10.30;;;;;;;22.11;69.80;99012.25;5032370;28;20185;-85
2022/06/30 04:43:58;;;;;;;13.77;10.03;;;;;;;23.04;69.57;99119.78;5040042;28;20205;-85
2022/06/30 04:46:25;;;;;;;20.07;10.80;;;;;;;21.54;68.32;98834.94;5048662;28;20575;-87
2022/06/30 04:48:51;;;;;;;16.33;10.60;;;;;;;21.31;67.71;98750.19;5032674;28;20197;-87
2022/06/30 04:51:17;;;;;;;12.30;10.03;;;;;;;22.58;68.27;98962.78;5017227;28;20209;-85
2022/06/30 04:53:43;;;;;;;15.83;10.30;;;;;;;22.32;67.74;98908.06;5016917;28;20220;-85
2022/06/30 04:56:09;;;;;;;11.90;9.30;;;;;;;23.11;67.33;99043.94;5034413;28;20210;-82
2022/06/30 04:58:35;;;;;;;11.77;9.10;;;;;;;21.92;67.21;98857.81;5035013;28;20189;-87
2022/06/30 05:01:01;;;;;;;12.53;9.60;;;;;;;22.68;68.75;99028.09;5052801;28;20703;-83
2022/06/30 05:03:27;;;;;;;13.37;9.50;;;;;;;22.96;69.52;99086.31;5053488;28;20718;-86
2022/06/30 05:05:53;;;;;;;14.90;9.50;;;;;;;23.23;68.79;99144.53;5054098;28;20270;-84
2022/06/30 05:08:19;;;;;;;12.83;9.67;;;;;;;19.70;70.36;98610.72;5050910;28;20173;-84
2022/06/30 05:10:44;;;;;;;11.37;10.00;;;;;;;20.73;71.87;98838.97;5054646;28;20173;-84
2022/06/30 05:13:10;;;;;;;13.27;10.23;;;;;;;21.81;71.19;98936.91;5037010;28;20192;-84
2022/06/30 05:15:35;;;;;;;16.00;10.37;;;;;;;22.30;70.89;99033.63;5053489;28;20201;-82
2022/06/30 05:18:01;;;;;;;13.73;10.17;;;;;;;23.21;69.13;99086.88;5053633;28;20180;-85
2022/06/30 05:20:26;;;;;;;14.17;10.50;;;;;;;22.89;68.67;99009.78;5051016;28;20197;-85
2022/06/30 05:22:52;;;;;;;14.83;10.13;;;;;;;22.74;70.03;99043.53;5055090;28;20181;-86
2022/06/30 05:28:02;;;;;;;13.83;10.10;;;;;;;23.33;69.82;99143.56;5034896;28;20295;-84
2022/06/30 05:30:27;;;;;;;13.13;9.90;;;;;;;22.65;68.67;99034.16;5019577;28;20263;-87
2022/06/30 05:32:53;;;;;;;13.53;10.23;;;;;;;20.98;69.49;98730.72;5030679;28;20312;-85
2022/06/30 05:35:19;;;;;;;15.53;10.20;;;;;;;22.30;69.08;98922.72;5018856;28;20205;-84
2022/06/30 05:37:44;;;;;;;14.37;10.03;;;;;;;22.95;68.22;98991.63;5036071;28;20186;-83
2022/06/30 05:40:10;;;;;;;13.70;9.87;;;;;;;23.72;67.15;99069.84;5036297;28;20243;-85
2022/06/30 05:42:36;;;;;;;15.03;9.90;;;;;;;23.64;66.79;99036.38;5036750;28;20192;-86
2022/06/30 05:45:03;;;;;;;11.40;10.20;;;;;;;23.86;67.24;99067.94;5035068;28;20182;-84
2022/06/30 05:47:28;;;;;;;13.50;10.00;;;;;;;23.34;66.90;98967.00;5033355;28;20186;-86
2022/06/30 05:49:54;;;;;;;12.57;9.77;;;;;;;23.81;66.59;99049.91;5033539;28;20239;-83
2022/06/30 05:52:19;;;;;;;12.60;10.00;;;;;;;22.34;67.74;98853.00;5033217;28;20219;-83
2022/06/30 05:54:45;;;;;;;12.30;10.10;;;;;;;23.52;63.62;98917.66;5030350;28;20182;-85
2022/06/30 05:57:10;;;;;;;12.40;9.50;;;;;;;24.12;62.12;98977.84;5032698;28;20204;-86
2022/06/30 05:59:36;;;;;;;14.00;9.60;;;;;;;22.42;62.91;98725.66;5033312;28;20186;-84
2022/06/30 06:02:01;;;;;;;13.80;10.47;;;;;;;24.05;62.36;98953.81;5015626;28;20642;-83
2022/06/30 06:04:27;;;;;;;12.27;10.13;;;;;;;24.08;60.33;98857.22;5018363;28;20178;-85
2022/06/30 06:06:53;;;;;;;16.50;9.50;;;;;;;26.23;57.90;99156.72;5034743;28;20239;-84
2022/06/30 06:09:19;;;;;;;13.43;9.33;;;;;;;25.36;56.75;98971.94;5034785;28;20209;-83
2022/06/30 06:11:45;;;;;;;11.57;9.50;;;;;;;25.27;56.67;98974.75;5038994;28;20185;-84
2022/06/30 06:14:10;;;;;;;11.97;8.97;;;;;;;25.95;53.69;99004.28;5037238;28;20181;-82
2022/06/30 06:16:36;;;;;;;12.27;9.23;;;;;;;26.83;54.59;99151.81;5037430;28;20209;-83
2022/06/30 06:19:02;;;;;;;13.77;9.13;;;;;;;27.26;53.77;99150.66;5036372;28;20188;-84
2022/06/30 06:21:27;;;;;;;9.63;8.60;;;;;;;26.35;50.98;99008.47;5034873;28;20174;-83
2022/06/30 06:23:54;;;;;;;11.97;9.53;;;;;;;26.91;54.57;99133.41;5033588;28;20491;-83
2022/06/30 06:26:20;;;;;;;12.82;9.15;;;;;;;25.51;53.43;98884.34;5023446;28;20225;-85
2022/06/30 06:31:31;;;;;;;15.50;9.13;;;;;;;24.19;54.87;98670.78;5033464;28;20323;-82
2022/06/30 06:33:57;;;;;;;11.50;8.93;;;;;;;25.21;52.82;98746.00;5032069;28;20207;-83
2022/06/30 06:36:22;;;;;;;11.77;9.02;;;;;;;26.98;52.39;99041.41;5041418;28;20674;-88
2022/06/30 06:38:48;;;;;;;15.07;9.15;;;;;;;27.89;52.49;99147.97;5033274;28;20268;-85
2022/06/30 06:41:14;;;;;;;18.02;9.48;;;;;;;25.58;51.26;98716.50;5031653;28;20300;-82
2022/06/30 06:43:40;;;;;;;15.65;9.20;;;;;;;28.51;50.28;99149.47;5035658;28;20263;-84
2022/06/30 06:46:05;;;;;;;17.13;8.70;;;;;;;28.79;48.45;99164.25;5035718;28;20638;-84
2022/06/30 06:48:31;;;;;;;14.20;9.30;;;;;;;28.88;48.00;99156.09;5032817;28;20225;-86
2022/06/30 06:50:57;;;;;;;13.77;9.43;;;;;;;27.36;46.33;98890.34;5034222;28;20197;-85
2022/06/30 06:53:22;;;;;;;19.45;9.13;;;;;;;27.29;46.07;98852.44;5033763;28;20191;-85
2022/06/30 06:55:48;;;;;;;10.13;8.60;;;;;;;29.00;45.35;99065.31;5035408;28;20205;-87
2022/06/30 06:58:13;;;;;;;10.18;8.63;;;;;;;29.44;44.24;99117.63;5033195;28;20242;-85
2022/06/30 07:00:39;;;;;;;14.52;8.30;;;;;;;28.49;44.35;99001.94;5035039;28;20185;-84
2022/06/30 07:03:04;;;;;;;13.73;8.77;;;;;;;28.54;45.41;99076.44;5033765;28;20189;-84
2022/06/30 07:05:29;;;;;;;12.40;8.90;;;;;;;28.51;44.54;99040.06;5033813;28;20179;-84
2022/06/30 07:07:59;;;;;;;13.63;8.38;;;;;;;29.62;44.03;99159.53;5012108;28;20248;-84
2022/06/30 07:10:25;;;;;;;15.10;8.35;;;;;;;28.73;43.79;99001.13;5013848;28;20193;-86
2022/06/30 07:12:51;;;;;;;12.00;8.02;;;;;;;29.81;43.53;99139.69;5014054;28;20186;-88
2022/06/30 07:15:17;;;;;;;13.40;8.43;;;;;;;29.13;43.45;99006.56;5013835;28;20238;-88
2022/06/30 07:17:42;;;;;;;11.07;7.55;;;;;;;29.44;42.32;99065.44;5022623;28;20188;-86
2022/06/30 07:20:09;;;;;;;10.70;7.97;;;;;;;30.07;41.89;99109.09;5032784;28;20209;-85
2022/06/30 07:22:35;;;;;;;10.73;7.18;;;;;;;29.26;41.47;98988.72;5033054;28;20195;-84
2022/06/30 07:25:02;;;;;;;8.93;7.70;;;;;;;30.27;41.38;99151.78;5028390;28;20256;-86
2022/06/30 07:27:28;;;;;;;10.65;8.30;;;;;;;29.55;40.87;99022.38;5028584;28;20241;-87
2022/06/30 07:29:53;;;;;;;10.57;7.70;;;;;;;29.32;40.73;98964.16;5037541;28;20195;-87
2022/06/30 07:32:19;;;;;;;12.77;8.23;;;;;;;27.67;41.82;98726.34;5021402;28;20694;-86
2022/06/30 07:34:44;;;;;;;13.63;8.75;;;;;;;30.53;41.25;99150.75;5044435;28;20199;-86
2022/06/30 07:37:09;;;;;;;9.27;7.93;;;;;;;29.96;40.11;99001.63;5057497;28;20208;-84
2022/06/30 07:39:35;;;;;;;11.13;7.75;;;;;;;30.85;39.79;99110.19;5062184;28;20197;-85
2022/06/30 07:42:01;;;;;;;10.93;7.78;;;;;;;30.12;39.50;98911.28;5061283;28;20657;-89
2022/06/30 07:44:26;;;;;;;9.35;7.35;;;;;;;30.92;38.42;98996.63;5056554;28;20870;-86
2022/06/30 07:46:52;;;;;;;12.32;7.70;;;;;;;30.89;39.42;99026.34;5049648;28;20665;-87
2022/06/30 07:49:18;;;;;;;11.15;7.30;;;;;;;30.98;40.20;99131.47;5031969;28;20195;-88
2022/06/30 07:51:43;;;;;;;9.52;7.18;;;;;;;31.31;38.21;99145.69;5031430;28;20186;-90
2022/06/30 07:54:08;;;;;;;9.80;7.22;;;;;;;31.14;38.62;99137.72;5026899;28;20195;-88
2022/06/30 07:56:34;;;;;;;11.30;7.80;;;;;;;30.63;38.24;99055.38;5052815;28;20326;-87
2022/06/30 07:59:00;;;;;;;11.85;7.30;;;;;;;29.36;38.84;98796.22;5051991;28;20188;-88
2022/06/30 08:01:25;;;;;;;14.07;8.25;;;;;;;31.70;38.74;99143.91;5052489;28;20243;-89
2022/06/30 08:03:51;;;;;;;11.88;7.80;;;;;;;31.39;38.01;99052.00;5049018;28;20171;-86
2022/06/30 08:06:16;;;;;;;12.07;7.90;;;;;;;30.28;38.18;98967.16;5028104;28;20690;-87
2022/06/30 08:08:42;;;;;;;12.80;7.68;;;;;;;29.91;37.67;98880.88;5014399;28;20177;-87
2022/06/30 08:11:09;;;;;;;9.82;7.85;;;;;;;29.77;38.30;98877.06;5035689;28;20183;-88
2022/06/30 08:13:35;;;;;;;13.20;8.50;;;;;;;31.04;38.94;99074.50;5050565;28;20181;-90
2022/06/30 08:16:00;;;;;;;12.60;7.68;;;;;;;31.62;38.51;99143.41;5051885;28;20671;-88
2022/06/30 08:18:26;;;;;;;10.80;7.95;;;;;;;29.94;38.52;98818.09;5053123;28;20198;-86
2022/06/30 08:20:52;;;;;;;10.50;8.40;;;;;;;28.95;38.50;98738.75;5052206;28;20255;-87
2022/06/30 08:23:17;;;;;;;12.40;7.97;;;;;;;30.68;39.75;99056.03;5051882;28;20251;-88
2022/06/30 08:25:43;;;;;;;17.20;8.27;;;;;;;30.72;39.45;99047.13;5051427;28;20163;-87
2022/06/30 08:28:08;;;;;;;12.80;8.27;;;;;;;29.95;39.22;98883.28;5052948;28;20168;-86
2022/06/30 08:30:35;;;;;;;12.05;8.50;;;;;;;30.51;38.41;98848.63;5052110;28;20164;-86
2022/06/30 08:33:00;;;;;;;13.43;8.45;;;;;;;31.54;38.16;99025.97;5052472;28;20234;-85
2022/06/30 08:35:26;;;;;;;12.52;8.13;;;;;;;30.88;38.19;98887.81;5049717;28;20218;-87
2022/06/30 08:37:53;;;;;;;13.20;8.05;;;;;;;32.33;37.41;99140.03;5049566;28;20567;-89
2022/06/30 08:43:03;;;;;;;13.65;8.00;;;;;;;32.61;37.00;99123.81;5045203;28;20242;-85
2022/06/30 08:45:29;;;;;;;15.13;8.75;;;;;;;31.54;36.60;99015.50;5043793;28;20263;-87
2022/06/30 08:47:55;;;;;;;14.52;7.93;;;;;;;31.02;37.12;98902.88;5046190;28;20185;-86
2022/06/30 08:50:21;;;;;;;11.60;8.23;;;;;;;31.28;36.34;98866.72;5056382;28;20158;-85
2022/06/30 08:52:52;;;;;;;11.55;8.25;;;;;;;31.73;35.96;98874.09;5057166;28;20161;-88
2022/06/30 08:55:20;;;;;;;11.55;8.23;;;;;;;33.34;35.73;99138.44;5052465;28;20165;-84
2022/06/30 08:57:47;;;;;;;13.38;8.85;;;;;;;33.78;35.11;99136.91;5052953;28;20177;-85
2022/06/30 09:00:16;;;;;;;11.15;7.93;;;;;;;33.81;34.59;99142.88;5043721;28;20185;-86
2022/06/30 09:02:42;;;;;;;13.73;8.75;;;;;;;33.90;34.54;99138.03;5033677;28;20166;-87
2022/06/30 09:05:08;;;;;;;13.05;8.40;;;;;;;34.15;34.17;99139.22;5031888;28;20162;-86
2022/06/30 09:07:34;;;;;;;11.90;8.35;;;;;;;33.17;33.48;98979.25;5013607;28;20221;-86
2022/06/30 09:10:00;;;;;;;10.90;8.18;;;;;;;33.04;33.87;98958.06;5031989;28;20190;-87
2022/06/30 09:12:27;;;;;;;11.85;8.30;;;;;;;32.17;34.18;98829.09;5030538;28;20173;-87
2022/06/30 09:14:52;;;;;;;12.30;7.95;;;;;;;32.08;34.75;98857.44;5031885;28;20642;-85
2022/06/30 09:17:23;;;;;;;11.18;7.95;;;;;;;31.20;33.82;98687.53;5013905;28;20276;-86
2022/06/30 09:19:54;;;;;;;13.95;7.75;;;;;;;33.60;34.09;99138.75;5042749;28;20213;-86
2022/06/30 09:22:22;;;;;;;11.40;8.05;;;;;;;32.00;33.78;98822.09;5031775;28;20158;-87
2022/06/30 09:24:59;;;;;;;11.15;7.68;;;;;;;32.61;34.47;98983.09;5014185;28;20177;-85
2022/06/30 09:27:27;;;;;;;13.48;7.32;;;;;;;31.24;33.57;98778.00;5031567;28;20166;-86
2022/06/30 09:30:04;;;;;;;14.77;8.00;;;;;;;33.39;34.74;99128.53;5014318;28;20174;-87
2022/06/30 09:32:42;;;;;;;9.35;7.15;;;;;;;31.86;34.31;98927.56;5013959;28;21409;-85
2022/06/30 09:35:10;;;;;;;10.02;7.13;;;;;;;31.19;33.18;98705.00;5031800;28;20170;-85
2022/06/30 09:37:36;;;;;;;12.23;7.20;;;;;;;31.67;33.40;98746.16;5017166;28;20185;-87
2022/06/30 09:40:03;;;;;;;8.90;7.30;;;;;;;33.14;33.89;98976.78;5035866;28;20368;-88
2022/06/30 09:42:44;;;;;;;8.43;7.25;;;;;;;32.19;33.55;98916.31;5035961;28;20276;-87
2022/06/30 09:45:11;;;;;;;9.93;7.25;;;;;;;32.08;33.43;98840.91;5035641;28;20511;-88
2022/06/30 09:47:51;;;;;;;10.48;7.18;;;;;;;31.12;34.17;98694.94;5035734;28;20253;-88
2022/06/30 09:50:16;;;;;;;12.43;7.80;;;;;;;32.47;33.85;98893.00;5035259;28;20158;-86
2022/06/30 09:52:42;;;;;;;11.82;7.80;;;;;;;32.32;34.52;98933.09;5016775;28;20181;-87
2022/06/30 09:55:08;;;;;;;11.40;7.72;;;;;;;33.13;34.25;99065.16;5017168;28;20260;-86
2022/06/30 09:57:43;;;;;;;8.48;7.57;;;;;;;31.87;34.63;98836.72;5017187;28;20717;-87
2022/06/30 10:00:15;;;;;;;9.23;7.45;;;;;;;33.68;33.69;99123.44;5035885;28;20188;-85
2022/06/30 10:02:46;;;;;;;10.23;7.10;;;;;;;33.15;34.54;99128.06;5006267;28;20158;-88
2022/06/30 10:05:12;;;;;;;8.10;7.20;;;;;;;31.86;34.36;98911.84;5050152;28;20197;-86
2022/06/30 10:07:38;;;;;;;10.48;7.28;;;;;;;33.15;33.41;99058.06;5053064;28;20213;-86
2022/06/30 10:10:15;;;;;;;11.07;7.43;;;;;;;33.57;33.49;99068.03;5053158;28;20185;-85
2022/06/30 10:12:44;;;;;;;10.32;7.05;;;;;;;33.74;33.50;99109.97;5035701;28;20734;-85
2022/06/30 10:15:12;;;;;;;9.35;7.22;;;;;;;32.48;34.20;98944.47;5043243;28;20205;-85
2022/06/30 10:17:44;;;;;;;10.75;6.90;;;;;;;33.73;34.06;99108.25;5037928;28;20179;-86
2022/06/30 10:20:10;;;;;;;10.27;7.40;;;;;;;32.74;33.13;98888.91;5052916;28;20258;-86
2022/06/30 10:22:39;;;;;;;11.80;7.40;;;;;;;34.30;33.31;99104.19;5053104;28;20261;-88
2022/06/30 10:25:05;;;;;;;9.93;6.78;;;;;;;33.54;33.05;98962.31;5052164;28;20196;-87
2022/06/30 10:27:30;;;;;;;8.43;7.22;;;;;;;34.49;33.57;99106.59;5052145;28;20173;-84
2022/06/30 10:29:57;;;;;;;8.10;6.88;;;;;;;34.40;32.45;99100.06;5052490;28;20247;-86
2022/06/30 10:32:37;;;;;;;9.77;6.40;;;;;;;34.32;32.61;99099.69;5052909;28;20229;-85
2022/06/30 10:35:18;;;;;;;9.45;7.05;;;;;;;34.38;33.00;99099.31;5050967;28;20250;-88
2022/06/30 10:37:54;;;;;;;11.48;6.95;;;;;;;33.36;33.56;99013.19;5053410;28;20181;-88
2022/06/30 10:40:36;;;;;;;7.07;6.22;;;;;;;33.93;33.63;99059.00;5034620;28;20207;-88
2022/06/30 10:43:02;;;;;;;7.68;6.78;;;;;;;33.99;32.95;99098.09;5052638;28;20187;-84
2022/06/30 10:45:30;;;;;;;10.85;7.47;;;;;;;33.98;33.37;99093.78;5052105;28;20188;-87
2022/06/30 10:48:07;;;;;;;9.80;6.53;;;;;;;33.42;33.42;99004.97;5052524;28;20264;-87
2022/06/30 10:50:43;;;;;;;7.80;6.65;;;;;;;33.33;33.82;98993.22;5034557;28;20275;-84
2022/06/30 10:53:38;;;;;;;7.50;6.65;;;;;;;33.86;33.56;99079.53;5052426;28;20195;-84
2022/06/30 10:56:04;;;;;;;7.32;6.50;;;;;;;32.31;33.89;98858.84;5009628;28;20723;-87
2022/06/30 10:58:30;;;;;;;8.40;7.00;;;;;;;32.17;34.20;98836.97;5006781;28;20191;-88
2022/06/30 11:00:55;;;;;;;7.07;6.38;;;;;;;33.88;33.68;99082.94;4992620;28;20205;-86
2022/06/30 11:03:30;;;;;;;7.07;6.38;;;;;;;33.84;34.04;99073.53;4988101;28;20694;-87
2022/06/30 11:05:56;;;;;;;8.82;6.80;;;;;;;33.18;34.56;98970.44;5009353;28;20198;-86
2022/06/30 11:08:52;;;;;;;8.45;6.40;;;;;;;33.79;34.01;99076.41;5009912;28;20186;-87
2022/06/30 11:11:20;;;;;;;11.27;6.35;;;;;;;33.78;34.29;99073.88;5009054;28;20191;-86
2022/06/30 11:13:46;;;;;;;7.32;6.20;;;;;;;33.16;34.36;98986.25;5007903;28;20202;-86
2022/06/30 11:16:16;;;;;;;8.57;6.53;;;;;;;33.34;35.01;99005.41;5009764;28;20251;-87
2022/06/30 11:18:42;;;;;;;8.63;6.88;;;;;;;33.07;34.79;98985.94;5009153;28;20629;-84
2022/06/30 11:21:08;;;;;;;8.95;6.80;;;;;;;32.05;34.14;98786.91;5008482;28;20229;-87
2022/06/30 11:23:42;;;;;;;7.20;6.50;;;;;;;32.43;34.22;98839.03;5007694;28;20191;-85
2022/06/30 11:28:54;;;;;;;8.00;6.07;;;;;;;32.56;33.77;98868.91;5008960;28;20190;-84
2022/06/30 11:31:25;;;;;;;8.18;6.47;;;;;;;33.62;33.77;99052.84;5009108;28;20698;-87
2022/06/30 11:33:57;;;;;;;10.45;5.47;;;;;;;32.58;32.00;98882.78;5050571;28;20177;-86
2022/06/30 11:36:22;;;;;;;7.15;6.28;;;;;;;32.00;33.69;98774.94;5033877;28;20237;-86
2022/06/30 11:38:55;;;;;;;8.35;6.47;;;;;;;33.60;34.35;99059.13;5031958;28;20278;-86